Barnes, Wisconsin
Current Conditions -  °F | °C
As of 5:15 AM on Sunday 21 Dec 2014 (Local Time) from KOLG Reporting Station
Overcast Overcast  
Wind Chill: 21°   Ceiling: 1300
Heat Index: 30°   Visibility: 10mi
Dew Point: 28°   Wind: 10mph
Humidity: 93%   Direction: 150°SSE
Pressure: 29.96"   Gusts: NA
Location:  46.3544°N, 91.6708°W
Report Text: KOLG 211115Z AUTO 15009KT 10SM OVC013 M01/M02 A2996 RMK AO1
Loading
Personal Weather Stations






























Interactive Weather Map New forecast layout! Learn more

10-Day Weather Forecast

Advertisements
Track Severe Weather on mobile